ミラノ/マルペンサ の空港の天気 - METARとTAF

ミラノ・マルペンサ国際空港 ( LIMC / MXP ) - イタリア ミラノ
飛行場実況気象(Metar)
観測時間08/08 04:20 CEST (08/08 02:20 UTC)
風向・風速北 2m/s
視程10km以上
天気現象
なし
気温21℃
湿度83%
気圧1020hPa
METARLIMC 080220Z 35003KT CAVOK 21/18 Q1020 NOSIG
過去の天気等 Google飛行場航空写真 Wunderground天気予報

過去48時間のMETAR

飛行場予報(TAF)
発表時間: 8/08 01:00 CEST (8/07 23:00 UTC)
予報対象時間: 8日2時 CEST ~ 9日8時 CEST
風向・風速不定 3m/s
視程10km以上
なし
TAF LIMC 072300Z 0800/0906 VRB05KT CAVOK